Time;durP1;ratioP1;P1;durP2;ratioP2;P2;SDS_P1;SDS_P2;PMS_P1;PMS_P2;Temp;Humidity;BMP_temperature;BMP_pressure;BME280_temperature;BME280_humidity;BME280_pressure;Samples;Min_cycle;Max_cycle;Signal;HPM_P1;HPM_P2
2021/05/18 00:01:08;;;;;;;11.32;6.47;;;10.40;99.90;;;;;;5073379;28;20024;-75
2021/05/18 00:03:33;;;;;;;10.63;6.93;;;10.40;99.90;;;;;;5056046;28;20021;-75
2021/05/18 00:06:01;;;;;;;11.70;5.63;;;10.40;99.90;;;;;;5056350;28;20094;-75
2021/05/18 00:08:28;;;;;;;10.40;7.30;;;10.40;99.90;;;;;;5055222;28;20021;-75
2021/05/18 00:13:45;;;;;;;10.05;5.45;;;10.40;99.90;;;;;;5055589;28;20035;-75
2021/05/18 00:16:12;;;;;;;10.68;6.05;;;10.40;99.90;;;;;;5055584;28;20051;-75
2021/05/18 00:18:38;;;;;;;14.68;7.05;;;10.40;99.90;;;;;;5055823;28;20138;-75
2021/05/18 00:21:05;;;;;;;9.50;6.40;;;10.50;99.90;;;;;;5052925;28;20045;-75
2021/05/18 00:23:31;;;;;;;13.95;6.50;;;10.50;99.90;;;;;;5054038;28;20024;-75
2021/05/18 00:25:58;;;;;;;9.05;6.28;;;10.50;99.90;;;;;;5056118;28;20025;-75
2021/05/18 00:28:24;;;;;;;9.90;5.70;;;10.50;99.90;;;;;;5055773;28;20152;-75
2021/05/18 00:30:50;;;;;;;8.85;6.68;;;10.50;99.90;;;;;;5057125;28;20070;-75
2021/05/18 00:33:20;;;;;;;9.15;5.53;;;10.50;99.90;;;;;;5053748;28;20433;-75
2021/05/18 00:35:46;;;;;;;;;;;10.50;99.90;;;;;;5054145;28;20527;-75
2021/05/18 00:38:13;;;;;;;8.00;5.20;;;10.50;99.90;;;;;;5054223;28;19957;-75
2021/05/18 00:40:40;;;;;;;8.65;5.32;;;10.40;99.90;;;;;;5052316;28;20025;-75
2021/05/18 00:43:06;;;;;;;9.35;5.80;;;10.40;99.90;;;;;;5055759;28;20020;-75
2021/05/18 00:45:37;;;;;;;9.60;6.22;;;10.50;99.90;;;;;;5055874;28;20357;-75
2021/05/18 00:48:05;;;;;;;7.65;5.82;;;10.50;99.90;;;;;;5054519;28;20719;-75
2021/05/18 00:50:34;;;;;;;7.75;5.22;;;10.50;99.90;;;;;;5054668;28;20048;-75
2021/05/18 00:53:00;;;;;;;8.55;5.10;;;10.50;99.90;;;;;;5055006;28;20023;-75
2021/05/18 01:00:39;;;;;;;8.30;5.55;;;10.50;99.90;;;;;;5055931;28;20510;-75
2021/05/18 01:03:06;;;;;;;14.32;6.57;;;10.50;99.90;;;;;;5057012;28;22450;-75
2021/05/18 01:08:16;;;;;;;10.85;6.65;;;10.50;99.90;;;;;;5055405;28;20055;-75
2021/05/18 01:10:43;;;;;;;10.40;7.40;;;10.50;99.90;;;;;;5053780;28;20421;-75
2021/05/18 01:13:09;;;;;;;12.40;7.28;;;10.50;99.90;;;;;;5052493;28;20021;-75
2021/05/18 01:15:35;;;;;;;13.15;8.13;;;10.60;99.90;;;;;;5056375;28;20032;-75
2021/05/18 01:18:00;;;;;;;15.77;8.50;;;10.60;99.90;;;;;;5054000;28;20024;-76
2021/05/18 01:20:26;;;;;;;10.88;7.45;;;10.60;99.90;;;;;;5053978;28;20469;-75
2021/05/18 01:22:52;;;;;;;15.32;7.72;;;10.60;99.90;;;;;;5052910;28;20033;-75
2021/05/18 01:25:20;;;;;;;11.77;7.03;;;10.60;99.90;;;;;;5054418;28;20388;-76
2021/05/18 01:27:46;;;;;;;10.80;6.90;;;10.60;99.90;;;;;;5067966;28;20021;-76
2021/05/18 01:30:13;;;;;;;10.98;6.63;;;10.60;99.90;;;;;;5054806;28;20040;-76
2021/05/18 01:32:43;;;;;;;10.35;6.47;;;10.60;99.90;;;;;;5055404;28;20028;-76
2021/05/18 01:35:09;;;;;;;;;;;10.60;99.90;;;;;;5053952;28;20036;-76
2021/05/18 01:37:35;;;;;;;7.63;5.30;;;10.60;99.90;;;;;;5053898;28;19905;-76
2021/05/18 01:45:20;;;;;;;8.02;5.93;;;10.70;99.90;;;;;;5054913;28;20080;-75
2021/05/18 01:47:54;;;;;;;8.00;4.40;;;10.70;99.90;;;;;;5056005;28;20088;-75
2021/05/18 01:50:25;;;;;;;8.52;6.50;;;10.70;99.90;;;;;;5054023;28;20047;-76
2021/05/18 01:52:52;;;;;;;10.35;6.78;;;10.70;99.90;;;;;;5054192;28;20021;-76
2021/05/18 01:55:25;;;;;;;10.75;6.53;;;10.60;99.90;;;;;;5052969;28;20017;-76
2021/05/18 01:57:51;;;;;;;8.73;6.50;;;10.70;99.90;;;;;;5052665;28;20055;-76
2021/05/18 02:00:20;;;;;;;18.05;8.45;;;10.70;99.90;;;;;;5054993;28;20105;-76
2021/05/18 02:02:46;;;;;;;13.35;8.15;;;10.70;99.90;;;;;;5056457;28;20048;-76
2021/05/18 02:05:14;;;;;;;11.93;7.55;;;10.70;99.90;;;;;;5053934;28;20060;-76
2021/05/18 02:07:43;;;;;;;13.25;7.50;;;10.70;99.90;;;;;;5053935;28;20021;-76
2021/05/18 02:10:11;;;;;;;11.98;7.28;;;10.80;99.90;;;;;;5053070;28;20492;-76
2021/05/18 02:12:38;;;;;;;10.77;8.00;;;10.80;99.90;;;;;;5052619;28;20025;-76
2021/05/18 02:15:24;;;;;;;16.83;9.32;;;10.80;99.90;;;;;;5055409;28;20104;-76
2021/05/18 02:26:28;;;;;;;21.48;11.82;;;10.60;99.90;;;;;;5058618;28;20078;-76
2021/05/18 02:28:54;;;;;;;18.70;11.65;;;10.50;99.90;;;;;;5060383;28;20096;-76
2021/05/18 02:31:21;;;;;;;22.15;13.57;;;10.50;99.90;;;;;;5073130;28;20033;-76
2021/05/18 02:33:50;;;;;;;24.10;12.85;;;10.40;99.90;;;;;;5057278;28;20024;-76
2021/05/18 02:36:21;;;;;;;27.58;15.68;;;10.40;99.90;;;;;;5072054;28;20041;-76
2021/05/18 02:38:47;;;;;;;28.60;16.38;;;10.30;99.90;;;;;;5056658;28;20426;-76
2021/05/18 02:41:13;;;;;;;25.17;16.75;;;10.30;99.90;;;;;;5056030;28;20023;-76
2021/05/18 02:43:53;;;;;;;21.63;15.35;;;10.30;99.90;;;;;;5058132;28;20021;-76
2021/05/18 02:51:31;;;;;;;31.55;19.65;;;10.10;99.90;;;;;;5057048;28;20035;-76
2021/05/18 02:53:56;;;;;;;25.20;18.30;;;10.00;99.90;;;;;;5056366;28;20052;-76
2021/05/18 02:56:28;;;;;;;30.60;18.08;;;10.00;99.90;;;;;;5056435;28;20037;-76
2021/05/18 02:59:00;;;;;;;29.23;20.50;;;10.00;99.90;;;;;;5055646;28;20021;-76
2021/05/18 03:01:25;;;;;;;27.90;18.67;;;10.00;99.90;;;;;;5060381;28;20052;-76
2021/05/18 03:03:51;;;;;;;24.23;18.15;;;10.00;99.90;;;;;;5056125;28;20440;-76
2021/05/18 03:06:17;;;;;;;27.98;18.67;;;10.00;99.90;;;;;;5074040;28;20085;-76
2021/05/18 03:08:43;;;;;;;29.45;20.50;;;10.00;99.90;;;;;;5056394;28;20435;-76
2021/05/18 03:11:09;;;;;;;26.40;19.48;;;9.90;99.90;;;;;;5056795;28;20019;-76
2021/05/18 03:13:35;;;;;;;28.38;18.55;;;9.90;99.90;;;;;;5056944;28;20107;-76
2021/05/18 03:16:01;;;;;;;26.10;18.85;;;9.90;99.90;;;;;;5057231;28;20032;-76
2021/05/18 03:18:26;;;;;;;27.85;19.27;;;9.90;99.90;;;;;;5057268;28;20074;-76
2021/05/18 03:20:52;;;;;;;26.55;18.65;;;10.00;99.90;;;;;;5055879;28;20039;-76
2021/05/18 03:23:17;;;;;;;28.20;19.42;;;10.00;99.90;;;;;;5055286;28;20434;-76
2021/05/18 03:25:43;;;;;;;32.25;20.67;;;10.00;99.90;;;;;;5073164;28;20515;-76
2021/05/18 03:28:08;;;;;;;31.27;21.33;;;10.00;99.90;;;;;;5057169;28;20021;-76
2021/05/18 03:31:11;;;;;;;29.80;21.23;;;10.00;99.90;;;;;;5058960;28;20020;-76
2021/05/18 03:36:04;;;;;;;31.52;23.13;;;10.00;99.90;;;;;;5054721;28;20160;-76
2021/05/18 03:41:06;;;;;;;29.52;22.38;;;10.00;99.90;;;;;;5055356;28;20376;-76
2021/05/18 03:54:22;;;;;;;31.15;24.17;;;10.10;99.90;;;;;;5056524;28;20051;-75
2021/05/18 04:05:10;;;;;;;35.13;24.95;;;10.10;99.90;;;;;;5057214;28;20108;-76
2021/05/18 04:10:45;;;;;;;37.40;26.40;;;10.10;99.90;;;;;;5055476;28;20498;-75
2021/05/18 04:18:46;;;;;;;40.13;30.02;;;10.20;99.90;;;;;;5056459;28;20510;-75
2021/05/18 04:21:20;;;;;;;43.08;30.83;;;10.20;99.90;;;;;;5054743;28;20024;-75
2021/05/18 04:24:16;;;;;;;49.28;32.67;;;10.20;99.90;;;;;;5054405;28;20044;-76
2021/05/18 04:51:08;;;;;;;53.28;36.33;;;10.40;99.90;;;;;;5056489;28;20021;-76
2021/05/18 05:01:57;;;;;;;50.25;38.08;;;10.40;99.90;;;;;;5070871;28;20030;-76
2021/05/18 05:07:03;;;;;;;52.15;37.75;;;10.50;99.90;;;;;;5054741;28;20396;-76
2021/05/18 05:09:38;;;;;;;56.92;38.33;;;10.50;99.90;;;;;;5055380;28;20530;-76
2021/05/18 05:14:49;;;;;;;53.15;35.70;;;10.60;99.90;;;;;;5054833;28;20048;-76
2021/05/18 05:17:14;;;;;;;53.92;36.97;;;10.60;99.90;;;;;;5072119;28;20473;-76
2021/05/18 05:19:40;;;;;;;52.95;39.05;;;10.60;99.90;;;;;;5054060;28;20032;-76
2021/05/18 05:22:07;;;;;;;51.83;37.55;;;10.60;99.90;;;;;;5052807;28;20377;-76
2021/05/18 05:24:33;;;;;;;51.78;37.22;;;10.60;99.90;;;;;;5051898;28;20028;-76
2021/05/18 05:26:59;;;;;;;48.55;35.83;;;10.70;99.90;;;;;;5061898;28;20108;-76
2021/05/18 05:29:25;;;;;;;51.13;36.78;;;10.70;99.90;;;;;;5055001;28;20108;-82
2021/05/18 05:31:52;;;;;;;48.63;35.30;;;10.70;99.90;;;;;;5057055;28;20024;-76
2021/05/18 05:34:18;;;;;;;50.45;36.80;;;10.80;99.90;;;;;;5072808;28;20062;-76
2021/05/18 05:36:45;;;;;;;47.53;34.58;;;10.80;99.90;;;;;;5071677;28;20415;-76
2021/05/18 05:39:22;;;;;;;45.47;33.30;;;10.90;99.90;;;;;;5072906;28;20028;-76
2021/05/18 05:41:47;;;;;;;49.17;34.22;;;10.90;99.90;;;;;;5073426;28;20399;-76
2021/05/18 05:44:13;;;;;;;48.42;34.58;;;10.90;99.90;;;;;;5088639;28;20036;-76
2021/05/18 05:46:39;;;;;;;42.75;30.98;;;10.90;99.90;;;;;;5088687;28;20020;-76
2021/05/18 05:49:04;;;;;;;41.58;31.08;;;11.00;99.90;;;;;;5073110;28;20036;-76
2021/05/18 05:51:30;;;;;;;43.83;32.53;;;11.00;99.90;;;;;;5073276;28;20392;-76
2021/05/18 05:54:01;;;;;;;44.75;31.20;;;11.00;99.90;;;;;;5073076;28;20037;-76
2021/05/18 05:56:28;;;;;;;41.10;31.23;;;11.10;99.90;;;;;;5073165;28;20021;-76
2021/05/18 05:58:55;;;;;;;40.17;31.70;;;11.10;99.90;;;;;;5072376;28;20036;-75
2021/05/18 06:01:20;;;;;;;40.58;29.90;;;11.20;99.90;;;;;;5072961;28;20031;-75
2021/05/18 06:03:46;;;;;;;46.05;32.60;;;11.20;99.90;;;;;;5072968;28;20020;-76
2021/05/18 06:06:12;;;;;;;51.25;30.25;;;11.30;99.90;;;;;;5071967;28;20019;-76
2021/05/18 06:08:43;;;;;;;40.25;28.85;;;11.30;99.90;;;;;;5088037;28;20021;-76
2021/05/18 06:14:08;;;;;;;38.35;27.48;;;11.30;99.90;;;;;;5072577;28;20024;-79
2021/05/18 06:17:03;;;;;;;41.38;29.00;;;11.40;99.90;;;;;;5070722;28;20532;-75
2021/05/18 06:49:04;;;;;;;37.92;26.98;;;11.80;99.90;;;;;;4991731;28;20058;-75
2021/05/18 06:51:30;;;;;;;36.05;27.00;;;11.80;99.90;;;;;;5071866;28;20023;-74
2021/05/18 06:53:55;;;;;;;33.53;25.90;;;11.80;99.90;;;;;;5071567;28;20021;-75
2021/05/18 06:56:21;;;;;;;36.45;27.23;;;11.80;99.90;;;;;;5071706;28;20035;-75
2021/05/18 07:00:08;;;;;;;28.77;19.45;;;11.80;99.90;;;;;;5070075;28;20028;-79
2021/05/18 07:01:32;;;;;;;20.77;16.35;;;11.60;99.90;;;;;;5070351;28;20047;-78
2021/05/18 07:04:03;;;;;;;19.63;15.85;;;11.20;99.90;;;;;;5064985;28;20422;-77
2021/05/18 07:06:58;;;;;;;16.52;12.75;;;11.00;99.90;;;;;;5072928;28;20013;-77
2021/05/18 07:09:23;;;;;;;20.85;15.43;;;10.80;99.90;;;;;;5067647;28;20099;-77
2021/05/18 07:11:49;;;;;;;21.60;16.40;;;10.80;99.90;;;;;;5073090;28;20490;-76
2021/05/18 07:14:15;;;;;;;18.08;13.65;;;10.80;99.90;;;;;;5075395;28;20449;-77
2021/05/18 07:16:41;;;;;;;13.70;10.65;;;10.80;99.90;;;;;;5075358;28;20028;-77
2021/05/18 07:19:07;;;;;;;11.27;9.20;;;10.80;99.90;;;;;;5074494;28;20029;-77
2021/05/18 07:21:32;;;;;;;13.98;10.57;;;10.80;99.90;;;;;;5075630;28;20029;-77
2021/05/18 07:23:58;;;;;;;15.70;12.70;;;10.90;99.90;;;;;;5075646;28;20078;-77
2021/05/18 07:26:24;;;;;;;21.38;15.70;;;10.90;99.90;;;;;;5072156;28;20032;-76
2021/05/18 07:28:49;;;;;;;41.85;27.27;;;11.10;99.90;;;;;;5066631;28;20021;-77
2021/05/18 07:31:15;;;;;;;49.28;31.92;;;11.20;99.90;;;;;;5075387;28;20028;-76
2021/05/18 07:33:40;;;;;;;43.15;30.63;;;11.30;99.90;;;;;;5075499;28;20115;-76
2021/05/18 07:36:09;;;;;;;43.72;30.48;;;11.40;99.90;;;;;;5073872;28;20056;-76
2021/05/18 07:38:39;;;;;;;44.35;33.78;;;11.60;99.90;;;;;;5075048;28;20021;-76
2021/05/18 07:41:06;;;;;;;46.28;34.60;;;11.70;99.90;;;;;;5075375;28;20024;-76
2021/05/18 07:43:32;;;;;;;44.65;33.08;;;11.70;99.90;;;;;;5074782;28;20024;-76
2021/05/18 07:46:00;;;;;;;45.28;35.58;;;11.80;99.90;;;;;;5074841;28;20021;-76
2021/05/18 07:48:39;;;;;;;43.97;33.75;;;11.90;99.90;;;;;;5073705;28;20016;-76
2021/05/18 08:07:17;;;;;;;23.42;17.80;;;11.50;99.90;;;;;;5074503;28;20082;-77
2021/05/18 08:09:47;;;;;;;25.88;19.13;;;11.30;99.90;;;;;;5074690;28;20024;-76
2021/05/18 08:12:13;;;;;;;;;;;11.30;99.90;;;;;;5074953;28;20020;-77
2021/05/18 08:14:43;;;;;;;28.00;21.77;;;11.30;99.90;;;;;;5074700;28;20277;-77
2021/05/18 08:22:36;;;;;;;32.72;24.90;;;11.50;99.90;;;;;;5074107;28;20032;-76
2021/05/18 10:15:38;;;;;;;8.23;6.00;;;11.70;99.90;;;;;;5072214;28;20382;-75
2021/05/18 10:21:39;;;;;;;8.60;5.22;;;11.70;99.90;;;;;;5056654;28;20033;-76
2021/05/18 10:37:30;;;;;;;1.85;1.52;;;20.10;99.90;;;;;;5069569;28;20059;-75
2021/05/18 10:40:32;;;;;;;3.13;1.33;;;22.30;99.90;;;;;;5050644;28;20040;-77
2021/05/18 10:43:11;;;;;;;1.40;1.10;;;24.20;99.90;;;;;;4975641;28;20026;-76
2021/05/18 10:45:59;;;;;;;1.50;1.23;;;24.20;99.70;;;;;;5066707;28;20090;-76
2021/05/18 10:48:31;;;;;;;3.15;2.45;;;22.90;99.90;;;;;;5076262;28;20020;-77
2021/05/18 10:50:57;;;;;;;3.58;2.90;;;21.10;99.90;;;;;;5076253;28;20078;-76
2021/05/18 10:53:29;;;;;;;2.95;2.60;;;19.90;99.90;;;;;;5068685;28;20040;-76
2021/05/18 10:56:06;;;;;;;3.83;3.42;;;19.10;99.90;;;;;;5048394;28;20027;-76
2021/05/18 10:58:32;;;;;;;6.40;3.90;;;18.40;99.90;;;;;;5057178;28;20502;-79
2021/05/18 11:00:59;;;;;;;5.32;3.83;;;18.00;99.90;;;;;;5074265;28;20067;-75
2021/05/18 11:03:24;;;;;;;4.47;3.75;;;17.80;99.90;;;;;;5075580;28;20108;-75
2021/05/18 11:05:51;;;;;;;2.97;2.45;;;18.80;99.90;;;;;;5075352;28;20146;-75
2021/05/18 11:08:17;;;;;;;2.97;2.53;;;21.00;99.90;;;;;;5073346;28;20020;-75
2021/05/18 11:10:46;;;;;;;4.13;2.28;;;23.10;99.90;;;;;;5075030;28;20025;-75
2021/05/18 11:13:12;;;;;;;2.67;1.95;;;25.40;97.80;;;;;;5075308;28;20024;-76
2021/05/18 11:15:38;;;;;;;4.07;3.67;;;26.90;93.80;;;;;;5075227;28;20112;-76
2021/05/18 11:18:04;;;;;;;4.63;3.70;;;26.00;76.30;;;;;;5075277;28;20141;-76
2021/05/18 11:23:21;;;;;;;5.85;4.50;;;22.60;70.30;;;;;;5075529;28;20164;-76
2021/05/18 11:25:54;;;;;;;6.28;4.18;;;21.60;76.40;;;;;;5073192;28;20024;-76
2021/05/18 11:28:23;;;;;;;5.28;2.60;;;21.20;74.30;;;;;;5075031;28;20066;-76
2021/05/18 11:30:53;;;;;;;2.88;1.80;;;21.80;72.60;;;;;;5073622;28;20021;-77
2021/05/18 11:33:20;;;;;;;3.20;2.70;;;23.30;69.10;;;;;;5075209;28;20085;-77
2021/05/18 11:36:03;;;;;;;4.40;2.40;;;24.60;61.70;;;;;;5074914;28;20016;-77
2021/05/18 11:38:29;;;;;;;5.32;3.00;;;25.40;57.20;;;;;;5074922;28;20029;-77
2021/05/18 11:40:54;;;;;;;3.55;2.05;;;25.80;56.50;;;;;;5073786;28;20104;-77
2021/05/18 11:43:37;;;;;;;4.25;2.47;;;26.10;54.20;;;;;;5074874;28;20035;-77
2021/05/18 11:46:09;;;;;;;4.07;2.85;;;26.70;53.10;;;;;;5075221;28;20020;-77
2021/05/18 11:48:37;;;;;;;3.95;3.13;;;26.80;48.70;;;;;;5074080;28;20384;-77
2021/05/18 11:51:13;;;;;;;4.35;3.35;;;24.80;49.20;;;;;;5075161;28;20017;-77
2021/05/18 11:53:49;;;;;;;4.63;2.65;;;23.10;52.30;;;;;;5075114;28;20028;-77
2021/05/18 11:56:30;;;;;;;3.38;2.25;;;21.60;58.00;;;;;;5074957;28;20508;-76
2021/05/18 11:59:10;;;;;;;3.80;2.17;;;20.80;59.10;;;;;;5074208;28;20098;-76
2021/05/18 12:01:51;;;;;;;6.22;3.53;;;21.20;60.90;;;;;;5075453;28;20024;-77
2021/05/18 12:04:19;;;;;;;5.32;3.35;;;20.50;59.00;;;;;;5073207;28;20122;-76
2021/05/18 12:07:05;;;;;;;5.13;2.90;;;19.60;60.40;;;;;;5073065;28;20021;-76
2021/05/18 12:09:33;;;;;;;3.03;1.90;;;20.20;61.70;;;;;;5074670;28;20078;-76
2021/05/18 12:12:04;;;;;;;3.97;3.00;;;21.60;61.00;;;;;;5074845;28;20021;-76
2021/05/18 12:14:31;;;;;;;4.25;3.05;;;22.90;56.20;;;;;;5072867;28;20037;-77
2021/05/18 12:16:57;;;;;;;2.65;2.25;;;23.50;55.20;;;;;;5074315;28;20027;-76
2021/05/18 12:19:24;;;;;;;5.50;2.85;;;24.00;53.60;;;;;;5074465;28;20028;-76
2021/05/18 12:21:52;;;;;;;3.40;2.33;;;24.20;51.60;;;;;;5073798;28;20063;-77
2021/05/18 12:24:25;;;;;;;3.60;2.50;;;24.20;50.60;;;;;;5074468;28;20500;-76
2021/05/18 12:26:58;;;;;;;3.90;2.50;;;23.90;49.10;;;;;;5074406;28;20025;-77
2021/05/18 12:29:51;;;;;;;3.45;2.50;;;23.80;50.50;;;;;;5069039;28;20035;-77
2021/05/18 12:32:21;;;;;;;3.72;2.30;;;23.50;51.80;;;;;;5070976;28;20538;-76
2021/05/18 12:34:48;;;;;;;3.17;2.30;;;23.50;50.70;;;;;;5088879;28;20028;-77
2021/05/18 12:37:14;;;;;;;3.40;2.28;;;22.70;51.70;;;;;;5072662;28;20047;-76
2021/05/18 12:39:42;;;;;;;3.03;2.17;;;22.50;53.40;;;;;;5073041;28;20024;-76
2021/05/18 12:42:15;;;;;;;3.75;2.30;;;22.40;52.80;;;;;;5070223;28;20028;-76
2021/05/18 12:44:50;;;;;;;5.80;2.30;;;21.90;51.80;;;;;;5071687;28;20387;-76
2021/05/18 12:47:29;;;;;;;4.72;3.33;;;22.00;53.70;;;;;;5071359;28;20013;-76
2021/05/18 12:49:56;;;;;;;4.28;2.30;;;22.10;52.20;;;;;;5073151;28;20020;-76
2021/05/18 12:52:22;;;;;;;3.13;2.10;;;22.10;53.10;;;;;;5056381;28;20067;-76
2021/05/18 12:54:47;;;;;;;3.50;1.85;;;22.40;53.10;;;;;;5046143;28;20833;-76
2021/05/18 12:57:15;;;;;;;4.28;3.03;;;22.90;53.80;;;;;;5055019;28;20020;-76
2021/05/18 13:00:01;;;;;;;3.60;2.35;;;23.20;51.70;;;;;;5071215;28;20078;-76
2021/05/18 13:02:41;;;;;;;4.15;2.17;;;22.40;51.00;;;;;;5086068;28;21618;-76
2021/05/18 13:05:13;;;;;;;4.72;1.90;;;22.20;52.60;;;;;;5071673;28;20696;-76
2021/05/18 13:07:40;;;;;;;7.35;2.42;;;22.70;52.00;;;;;;5071897;28;20013;-76
2021/05/18 13:10:10;;;;;;;2.75;2.10;;;22.40;51.20;;;;;;5071851;28;20017;-77
2021/05/18 13:12:35;;;;;;;3.75;2.13;;;22.20;52.10;;;;;;5071937;28;20020;-76
2021/05/18 13:15:05;;;;;;;3.38;2.10;;;22.30;51.80;;;;;;5071739;28;20480;-76
2021/05/18 13:17:31;;;;;;;;;;;22.10;51.50;;;;;;5071430;28;20060;-77
2021/05/18 13:20:14;;;;;;;3.10;2.25;;;21.20;51.50;;;;;;5071565;28;19909;-76
2021/05/18 13:22:42;;;;;;;4.15;3.00;;;20.40;54.20;;;;;;5071069;28;20044;-77
2021/05/18 13:27:57;;;;;;;2.95;1.67;;;19.80;57.60;;;;;;5071297;28;20111;-76
2021/05/18 13:30:26;;;;;;;2.83;1.45;;;20.40;59.30;;;;;;5070713;28;20040;-77
2021/05/18 13:32:52;;;;;;;3.05;1.50;;;20.90;54.00;;;;;;5069902;28;20075;-77
2021/05/18 13:35:19;;;;;;;2.45;1.42;;;20.80;52.50;;;;;;5068092;28;20472;-77
2021/05/18 13:37:45;;;;;;;1.85;1.40;;;20.40;52.80;;;;;;5070359;28;20044;-77
2021/05/18 13:40:13;;;;;;;4.93;2.15;;;19.90;53.80;;;;;;5058763;28;20029;-77
2021/05/18 13:42:39;;;;;;;3.67;1.88;;;19.40;55.10;;;;;;5072287;28;20032;-76
2021/05/18 13:45:06;;;;;;;2.10;1.50;;;19.30;56.60;;;;;;5065894;28;20130;-77
2021/05/18 13:47:31;;;;;;;2.88;1.77;;;18.80;55.10;;;;;;5056600;28;20111;-77
2021/05/18 13:49:57;;;;;;;3.00;1.65;;;18.50;56.50;;;;;;5057812;28;20121;-77
2021/05/18 13:52:22;;;;;;;3.38;2.17;;;18.60;58.00;;;;;;5077271;28;20035;-77
2021/05/18 13:54:50;;;;;;;4.18;2.03;;;18.40;56.10;;;;;;5081738;28;20533;-76
2021/05/18 13:57:16;;;;;;;2.78;2.05;;;18.10;58.10;;;;;;5077072;28;20020;-76
2021/05/18 13:59:42;;;;;;;4.97;1.83;;;18.20;59.50;;;;;;5080983;28;20550;-75
2021/05/18 14:02:07;;;;;;;2.58;2.08;;;18.60;61.10;;;;;;5078033;28;20016;-76
2021/05/18 14:04:33;;;;;;;4.00;1.92;;;18.80;60.00;;;;;;5078856;28;20025;-76
2021/05/18 14:10:08;;;;;;;5.15;2.70;;;19.10;61.40;;;;;;5081290;28;20507;-75
2021/05/18 14:12:34;;;;;;;4.95;2.25;;;19.00;61.30;;;;;;5077244;28;20028;-75
2021/05/18 14:14:59;;;;;;;2.45;1.70;;;19.10;59.80;;;;;;5079493;28;20073;-75
2021/05/18 14:17:25;;;;;;;2.45;1.35;;;19.10;59.80;;;;;;5076306;28;20526;-75
2021/05/18 14:19:50;;;;;;;3.05;1.80;;;19.30;59.40;;;;;;5078631;28;20028;-75
2021/05/18 14:22:16;;;;;;;3.33;2.35;;;19.50;58.70;;;;;;5082551;28;20021;-75
2021/05/18 14:24:51;;;;;;;4.88;2.30;;;19.40;55.80;;;;;;5080707;28;20055;-75
2021/05/18 14:27:20;;;;;;;4.93;2.08;;;18.90;56.20;;;;;;5077122;28;20008;-76
2021/05/18 14:29:46;;;;;;;3.38;2.22;;;18.30;59.20;;;;;;5081045;28;20467;-76
2021/05/18 14:32:12;;;;;;;4.57;1.80;;;18.20;59.70;;;;;;5084095;28;20440;-75
2021/05/18 14:34:38;;;;;;;2.85;1.92;;;18.20;58.20;;;;;;5080996;28;20025;-75
2021/05/18 14:37:04;;;;;;;4.55;2.13;;;18.20;58.10;;;;;;5071581;28;20049;-75
2021/05/18 14:39:49;;;;;;;2.92;1.88;;;17.90;59.10;;;;;;5086164;28;20049;-75
2021/05/18 14:44:59;;;;;;;4.38;2.10;;;17.90;60.60;;;;;;5075965;28;20485;-76
2021/05/18 14:47:28;;;;;;;2.75;1.55;;;18.10;59.30;;;;;;5075790;28;20024;-75
2021/05/18 14:55:23;;;;;;;3.03;1.63;;;18.40;58.60;;;;;;5076374;28;20047;-79
2021/05/18 14:57:49;;;;;;;3.17;1.50;;;18.10;57.40;;;;;;5091325;28;20024;-81
2021/05/18 15:00:15;;;;;;;3.50;1.23;;;17.80;58.90;;;;;;5074358;28;20017;-80
2021/05/18 15:02:40;;;;;;;3.30;1.52;;;17.80;59.50;;;;;;5091513;28;20107;-82
2021/05/18 15:05:07;;;;;;;2.60;1.20;;;18.10;59.70;;;;;;5075551;28;20051;-82
2021/05/18 15:07:32;;;;;;;2.17;0.85;;;18.30;58.70;;;;;;5075236;28;20016;-81
2021/05/18 15:09:58;;;;;;;2.53;0.93;;;18.10;59.00;;;;;;5075462;28;20028;-80
2021/05/18 15:12:24;;;;;;;3.85;0.80;;;18.10;59.50;;;;;;5075473;28;20035;-82
2021/05/18 15:14:49;;;;;;;2.17;0.80;;;18.00;60.10;;;;;;5075579;28;20016;-84
2021/05/18 15:17:15;;;;;;;3.78;0.85;;;18.20;60.20;;;;;;5075216;28;20500;-81
2021/05/18 15:19:41;;;;;;;1.55;0.88;;;18.30;59.70;;;;;;5075358;28;20032;-79
2021/05/18 15:22:09;;;;;;;4.28;1.00;;;18.30;58.70;;;;;;5074236;28;20020;-81
2021/05/18 15:24:34;;;;;;;3.47;1.23;;;18.20;58.50;;;;;;5078076;28;20016;-81
2021/05/18 15:27:01;;;;;;;1.63;0.65;;;18.20;59.20;;;;;;5089089;28;20020;-80
2021/05/18 15:29:26;;;;;;;2.45;0.50;;;18.20;60.30;;;;;;5085485;28;20532;-83
2021/05/18 15:31:52;;;;;;;0.82;0.50;;;18.20;58.90;;;;;;5081631;28;20108;-79
2021/05/18 15:34:18;;;;;;;1.27;0.52;;;18.20;59.80;;;;;;5082766;28;20044;-81
2021/05/18 15:36:44;;;;;;;2.53;0.88;;;18.20;57.90;;;;;;5076315;28;20049;-79
2021/05/18 15:39:10;;;;;;;1.30;0.70;;;18.20;58.00;;;;;;5067299;28;20386;-82
2021/05/18 15:41:36;;;;;;;1.77;0.70;;;18.10;60.20;;;;;;5069599;28;20032;-84
2021/05/18 15:44:03;;;;;;;2.30;0.93;;;18.20;59.30;;;;;;5073265;28;20029;-79
2021/05/18 15:46:28;;;;;;;1.52;0.50;;;18.20;59.70;;;;;;5073987;28;20021;-79
2021/05/18 15:48:54;;;;;;;2.47;0.70;;;18.20;59.50;;;;;;5080171;28;20388;-85
2021/05/18 15:51:19;;;;;;;1.25;0.57;;;18.20;59.10;;;;;;5079178;28;20032;-80
2021/05/18 15:53:45;;;;;;;1.13;0.45;;;18.20;59.00;;;;;;5081235;28;20028;-80
2021/05/18 15:56:11;;;;;;;2.65;0.50;;;18.30;58.70;;;;;;5085216;28;20067;-80
2021/05/18 15:58:36;;;;;;;3.20;0.60;;;18.40;58.60;;;;;;5082811;28;20016;-80
2021/05/18 16:01:02;;;;;;;1.55;0.50;;;18.50;57.60;;;;;;5082159;28;20025;-80
2021/05/18 16:03:28;;;;;;;2.78;0.70;;;18.30;55.20;;;;;;5083214;28;20031;-80
2021/05/18 16:05:55;;;;;;;0.70;0.40;;;18.10;56.60;;;;;;5073290;28;20028;-80
2021/05/18 16:10:58;;;;;;;2.15;0.50;;;18.00;57.70;;;;;;5073683;28;20016;-80
2021/05/18 16:13:23;;;;;;;1.73;0.50;;;18.10;57.60;;;;;;5073902;28;20073;-79
2021/05/18 16:15:49;;;;;;;2.08;0.80;;;18.10;58.10;;;;;;5074764;28;20103;-79
2021/05/18 16:18:14;;;;;;;1.75;0.70;;;18.10;57.70;;;;;;5072964;28;20433;-79
2021/05/18 16:20:41;;;;;;;1.05;0.50;;;18.00;58.10;;;;;;5072473;28;20118;-79
2021/05/18 16:23:06;;;;;;;1.63;0.55;;;18.00;58.90;;;;;;5086724;28;20016;-78
2021/05/18 16:25:32;;;;;;;0.80;0.40;;;18.00;58.30;;;;;;5086577;28;20468;-78
2021/05/18 16:27:58;;;;;;;1.33;0.60;;;17.90;58.50;;;;;;5081713;28;20028;-78
2021/05/18 16:30:24;;;;;;;2.50;0.40;;;17.90;58.60;;;;;;5089081;28;20468;-78
2021/05/18 16:32:49;;;;;;;1.15;0.55;;;17.80;58.00;;;;;;5080698;28;20067;-82
2021/05/18 16:35:15;;;;;;;1.48;0.50;;;17.80;59.10;;;;;;5087636;28;20055;-78
2021/05/18 16:37:40;;;;;;;3.22;0.85;;;17.80;59.60;;;;;;5063986;28;20530;-79
2021/05/18 16:40:07;;;;;;;1.13;0.55;;;17.50;58.80;;;;;;5071254;28;20013;-81
2021/05/18 16:42:36;;;;;;;2.20;0.98;;;17.40;59.10;;;;;;5072157;28;20487;-82
2021/05/18 16:45:07;;;;;;;1.33;0.57;;;17.30;59.40;;;;;;5072653;28;20024;-81
2021/05/18 16:47:33;;;;;;;2.38;0.40;;;17.20;59.40;;;;;;5073143;28;20024;-80
2021/05/18 16:49:59;;;;;;;1.17;0.52;;;17.10;59.40;;;;;;5085904;28;20510;-79
2021/05/18 16:52:25;;;;;;;1.27;0.50;;;17.10;60.50;;;;;;5073982;28;20036;-79
2021/05/18 16:54:51;;;;;;;1.50;0.50;;;17.00;61.80;;;;;;5073161;28;20033;-79
2021/05/18 16:57:17;;;;;;;2.10;0.57;;;17.00;61.10;;;;;;5072774;28;20036;-79
2021/05/18 16:59:42;;;;;;;1.25;0.60;;;17.00;60.00;;;;;;5072628;28;20028;-79
2021/05/18 17:02:08;;;;;;;2.25;0.60;;;17.00;60.70;;;;;;5072641;28;20025;-79
2021/05/18 17:04:33;;;;;;;2.22;0.50;;;16.90;60.30;;;;;;5072269;28;20037;-79
2021/05/18 17:07:02;;;;;;;1.60;0.82;;;16.80;60.50;;;;;;5055828;28;20025;-78
2021/05/18 17:09:28;;;;;;;2.33;0.77;;;16.70;60.90;;;;;;5072605;28;20177;-79
2021/05/18 17:11:54;;;;;;;2.35;0.98;;;16.60;61.20;;;;;;5072681;28;20024;-79
2021/05/18 17:14:22;;;;;;;2.55;0.50;;;16.60;62.40;;;;;;5072457;28;20016;-79
2021/05/18 17:16:47;;;;;;;2.85;0.60;;;16.60;62.40;;;;;;5075965;28;20066;-79
2021/05/18 17:19:13;;;;;;;0.90;0.60;;;16.60;63.60;;;;;;5077241;28;20024;-79
2021/05/18 17:21:39;;;;;;;1.98;0.52;;;16.60;63.00;;;;;;5078990;28;20472;-79
2021/05/18 17:24:05;;;;;;;1.35;0.60;;;16.60;62.70;;;;;;5075155;28;20059;-79
2021/05/18 17:26:31;;;;;;;2.70;0.60;;;16.60;62.60;;;;;;5079591;28;20102;-79
2021/05/18 17:28:57;;;;;;;1.08;0.50;;;16.60;63.60;;;;;;5075713;28;20017;-79
2021/05/18 17:31:22;;;;;;;3.97;0.70;;;16.50;63.10;;;;;;5072020;28;20047;-79
2021/05/18 17:33:48;;;;;;;1.80;0.50;;;16.40;62.60;;;;;;5072295;28;20046;-81
2021/05/18 17:36:14;;;;;;;1.52;0.50;;;16.40;63.70;;;;;;5070522;28;20062;-79
2021/05/18 17:38:39;;;;;;;0.95;0.50;;;16.30;63.60;;;;;;5072267;28;20472;-79
2021/05/18 17:41:05;;;;;;;1.60;0.50;;;16.20;61.90;;;;;;5070866;28;20035;-79
2021/05/18 17:43:32;;;;;;;1.33;0.40;;;16.20;62.60;;;;;;5070546;28;20024;-79
2021/05/18 17:45:58;;;;;;;1.77;0.50;;;16.20;62.50;;;;;;5070447;28;20033;-79
2021/05/18 17:48:24;;;;;;;1.83;0.50;;;16.20;62.50;;;;;;5087462;28;20032;-79